Cottenham, United Kingdom
Current Conditions -  °F | °C
As of 4:20 PM on Wednesday 28 Jan 2015 (Local Time) from EGSC Reporting Station
Few Clouds Few Clouds  
Wind Chill: 32°   Ceiling: Unl
Heat Index: 41°   Visibility: 6mi
Dew Point: 27°   Wind: 20mph
Humidity: 57%   Direction: 260°W
Pressure: 29.5"   Gusts: NA
Location:  52.29°N, 0.13°E
Report Text: EGSC 281620Z 26017KT 9999 FEW024 05/M03 Q0999
Loading
Personal Weather Stations






























Interactive Weather Map New forecast layout! Learn more

10-Day Weather Forecast

Advertisements
Track Severe Weather on mobile